createdAt,value
2022-12-24T00:02:22.857Z,58.00
2022-12-24T00:04:57.157Z,59.33
2022-12-24T00:07:30.821Z,62.00
2022-12-24T00:10:00.402Z,63.33
2022-12-24T00:12:29.986Z,62.00
2022-12-24T00:14:59.451Z,61.33
2022-12-24T00:17:28.997Z,60.00
2022-12-24T00:19:58.668Z,62.00
2022-12-24T00:22:28.486Z,65.00
2022-12-24T00:24:58.010Z,57.33
2022-12-24T00:27:27.515Z,64.33
2022-12-24T00:29:57.123Z,67.00
2022-12-24T00:32:26.625Z,61.00
2022-12-24T00:34:56.151Z,60.67
2022-12-24T00:37:25.685Z,61.00
2022-12-24T00:39:55.244Z,59.33
2022-12-24T00:42:25.660Z,56.33
2022-12-24T00:44:55.182Z,59.00
2022-12-24T00:47:24.699Z,59.00
2022-12-24T00:49:54.297Z,58.67
2022-12-24T00:52:23.905Z,59.67
2022-12-24T00:54:53.415Z,56.33
2022-12-24T00:57:22.915Z,58.00
2022-12-24T00:59:52.421Z,61.33
2022-12-24T01:02:22.502Z,63.33
2022-12-24T01:05:10.411Z,63.00
2022-12-24T01:07:45.229Z,61.00
2022-12-24T01:10:19.989Z,58.67
2022-12-24T01:12:49.537Z,57.33
2022-12-24T01:15:19.269Z,62.00
2022-12-24T01:17:48.912Z,73.33
2022-12-24T01:20:19.121Z,64.33
2022-12-24T01:22:49.066Z,64.67
2022-12-24T01:25:18.836Z,64.33
2022-12-24T01:27:48.380Z,62.67
2022-12-24T01:30:17.986Z,58.33
2022-12-24T01:32:47.607Z,60.00
2022-12-24T01:35:17.900Z,58.00
2022-12-24T01:37:48.271Z,58.67
2022-12-24T01:40:37.280Z,58.00
2022-12-24T01:43:23.885Z,60.33
2022-12-24T01:46:04.076Z,70.67
2022-12-24T01:48:46.691Z,63.00
2022-12-24T01:51:37.641Z,60.00
2022-12-24T01:54:22.756Z,56.00
2022-12-24T01:57:37.429Z,60.00
2022-12-24T02:00:14.623Z,57.33
2022-12-24T02:02:49.783Z,56.00
2022-12-24T02:05:33.759Z,58.00
2022-12-24T02:08:05.949Z,54.00
2022-12-24T02:10:35.631Z,57.33
2022-12-24T02:13:07.487Z,64.00
2022-12-24T02:16:28.407Z,61.00
2022-12-24T02:19:28.329Z,60.33
2022-12-24T02:22:22.977Z,62.33
2022-12-24T02:25:10.249Z,64.67
2022-12-24T02:28:20.250Z,68.33
2022-12-24T02:31:06.818Z,63.67
2022-12-24T02:33:45.692Z,64.67
2022-12-24T02:36:35.085Z,68.00
2022-12-24T02:39:21.391Z,69.00
2022-12-24T02:42:06.590Z,62.33
2022-12-24T02:44:50.568Z,70.67
2022-12-24T02:47:26.491Z,79.67
2022-12-24T02:49:56.150Z,64.33
2022-12-24T02:52:34.235Z,64.33
2022-12-24T02:55:12.899Z,74.67
2022-12-24T02:58:22.787Z,66.00
2022-12-24T03:01:36.621Z,71.50
2022-12-24T03:04:53.444Z,67.33
2022-12-24T03:08:00.371Z,79.33
2022-12-24T03:10:43.950Z,64.33
2022-12-24T03:13:18.979Z,62.67
2022-12-24T03:15:50.889Z,67.00
2022-12-24T03:18:29.486Z,63.00
2022-12-24T03:21:24.785Z,64.00
2022-12-24T03:23:56.284Z,66.67
2022-12-24T03:26:29.048Z,71.25
2022-12-24T03:28:59.023Z,64.00
2022-12-24T03:31:43.325Z,65.00
2022-12-24T03:34:14.835Z,68.33
2022-12-24T03:36:45.049Z,62.00
2022-12-24T03:39:14.606Z,63.67
2022-12-24T03:41:44.223Z,72.00
2022-12-24T03:44:13.670Z,68.50
2022-12-24T03:46:43.238Z,62.33
2022-12-24T03:49:12.844Z,66.67
2022-12-24T03:51:42.291Z,62.33
2022-12-24T03:54:11.768Z,64.67
2022-12-24T03:56:41.335Z,68.00
2022-12-24T03:59:10.820Z,66.25
2022-12-24T04:01:40.441Z,65.00
2022-12-24T04:04:10.095Z,67.33
2022-12-24T04:06:39.603Z,63.33
2022-12-24T04:09:09.154Z,66.33
2022-12-24T04:11:38.701Z,64.67
2022-12-24T04:14:08.284Z,78.00
2022-12-24T04:16:38.028Z,63.33
2022-12-24T04:19:07.613Z,77.67
2022-12-24T04:21:37.202Z,69.25
2022-12-24T04:24:07.105Z,71.67
2022-12-24T04:26:36.671Z,78.00
2022-12-24T04:29:06.202Z,65.00
2022-12-24T04:31:35.940Z,68.00
2022-12-24T04:34:05.550Z,74.33
2022-12-24T04:36:35.162Z,80.00
2022-12-24T04:39:04.755Z,72.00
2022-12-24T04:41:34.374Z,69.00
2022-12-24T04:44:04.121Z,77.75
2022-12-24T04:46:33.886Z,67.00
2022-12-24T04:49:03.543Z,70.00
2022-12-24T04:51:33.120Z,69.33
2022-12-24T04:54:02.952Z,71.00
2022-12-24T04:56:33.700Z,76.00
2022-12-24T04:59:03.410Z,66.67
2022-12-24T05:01:33.950Z,65.33
2022-12-24T05:04:03.878Z,72.67
2022-12-24T05:06:35.186Z,71.00
2022-12-24T05:09:04.920Z,69.33
2022-12-24T05:11:34.480Z,71.00
2022-12-24T05:14:04.364Z,73.00
2022-12-24T05:16:33.970Z,66.67
2022-12-24T05:19:03.606Z,70.67
2022-12-24T05:21:33.279Z,70.33
2022-12-24T05:24:21.363Z,69.33
2022-12-24T05:26:57.048Z,71.33
2022-12-24T05:29:26.698Z,70.00
2022-12-24T05:31:56.294Z,66.33
2022-12-24T05:34:25.856Z,69.33
2022-12-24T05:36:55.433Z,70.67
2022-12-24T05:39:23.159Z,78.00
2022-12-24T05:41:52.702Z,71.00
2022-12-24T05:44:22.347Z,67.00
2022-12-24T05:46:52.419Z,66.33
2022-12-24T05:49:22.022Z,68.67
2022-12-24T05:51:51.564Z,64.00
2022-12-24T05:54:21.118Z,67.00
2022-12-24T05:56:50.720Z,68.00
2022-12-24T05:59:20.193Z,74.25
2022-12-24T06:01:49.790Z,66.67
2022-12-24T06:04:24.606Z,64.00
2022-12-24T06:06:57.849Z,64.33
2022-12-24T06:09:27.413Z,65.00
2022-12-24T06:11:56.929Z,65.00
2022-12-24T06:14:26.576Z,69.33
2022-12-24T06:16:56.162Z,68.67
2022-12-24T06:19:25.807Z,68.67
2022-12-24T06:21:55.380Z,71.00
2022-12-24T06:24:25.067Z,71.00
2022-12-24T06:26:54.566Z,70.75
2022-12-24T06:29:25.625Z,71.25
2022-12-24T06:31:56.719Z,68.00
2022-12-24T06:34:26.354Z,67.33
2022-12-24T06:36:55.990Z,68.00
2022-12-24T06:39:25.930Z,69.67
2022-12-24T06:41:55.669Z,77.33
2022-12-24T06:44:25.339Z,65.33
2022-12-24T06:46:53.170Z,63.00
2022-12-24T06:49:22.817Z,72.67
2022-12-24T06:51:52.422Z,65.00
2022-12-24T06:54:22.009Z,66.33
2022-12-24T06:56:51.578Z,69.00
2022-12-24T06:59:21.236Z,63.67
2022-12-24T07:01:50.828Z,60.67
2022-12-24T07:04:20.885Z,67.00
2022-12-24T07:06:50.598Z,64.33
2022-12-24T07:09:20.180Z,66.33
2022-12-24T07:11:49.749Z,70.33
2022-12-24T07:14:19.421Z,64.67
2022-12-24T07:16:55.300Z,59.33
2022-12-24T07:19:28.083Z,61.00
2022-12-24T07:21:57.619Z,60.67
2022-12-24T07:24:27.081Z,59.33
2022-12-24T07:26:56.572Z,50.00
2022-12-24T07:29:26.078Z,52.33
2022-12-24T07:31:55.611Z,56.33
2022-12-24T07:34:25.260Z,59.67
2022-12-24T07:36:54.763Z,60.67
2022-12-24T07:39:24.387Z,57.67
2022-12-24T07:41:53.886Z,60.00
2022-12-24T07:44:23.416Z,59.50
2022-12-24T07:46:52.993Z,60.67
2022-12-24T07:49:22.653Z,61.00
2022-12-24T07:51:52.151Z,56.67
2022-12-24T07:54:21.704Z,63.00
2022-12-24T07:56:51.240Z,60.00
2022-12-24T07:59:22.152Z,70.00
2022-12-24T08:01:51.980Z,66.00
2022-12-24T08:04:21.827Z,67.33
2022-12-24T08:06:52.087Z,62.67
2022-12-24T08:09:21.581Z,64.67
2022-12-24T08:11:52.458Z,67.67
2022-12-24T08:14:22.257Z,62.67
2022-12-24T08:16:51.839Z,70.33
2022-12-24T08:19:21.558Z,76.33
2022-12-24T08:21:52.068Z,112.00
2022-12-24T08:24:21.736Z,75.67
2022-12-24T08:26:51.313Z,82.33
2022-12-24T08:29:20.919Z,91.33
2022-12-24T08:31:50.673Z,79.00
2022-12-24T08:34:20.265Z,82.00
2022-12-24T08:36:49.823Z,76.00
2022-12-24T08:39:19.500Z,78.67
2022-12-24T08:41:49.102Z,73.00
2022-12-24T08:44:18.861Z,65.33
2022-12-24T08:46:48.588Z,70.67
2022-12-24T08:49:18.179Z,71.67
2022-12-24T08:51:47.642Z,65.67
2022-12-24T08:54:17.103Z,64.00
2022-12-24T08:56:46.736Z,67.67
2022-12-24T08:59:16.271Z,61.00
2022-12-24T09:01:45.903Z,63.00
2022-12-24T09:04:15.588Z,59.00
2022-12-24T09:06:45.147Z,62.00
2022-12-24T09:09:14.622Z,60.00
2022-12-24T09:11:45.344Z,58.67
2022-12-24T09:14:14.830Z,59.00
2022-12-24T09:16:43.510Z,105.00
2022-12-24T09:19:13.049Z,52.00
2022-12-24T09:21:42.681Z,60.67
2022-12-24T09:24:12.133Z,51.33
2022-12-24T09:26:42.464Z,55.33
2022-12-24T09:29:12.118Z,55.67
2022-12-24T09:31:42.123Z,54.33
2022-12-24T09:34:11.681Z,53.67
2022-12-24T09:36:41.176Z,57.33
2022-12-24T09:39:10.684Z,56.67
2022-12-24T09:42:09.422Z,50.67
2022-12-24T09:45:15.919Z,50.00
2022-12-24T09:48:04.426Z,48.33
2022-12-24T09:50:38.809Z,43.67
2022-12-24T09:53:49.181Z,42.33
2022-12-24T09:56:45.645Z,45.50
2022-12-24T09:59:27.306Z,39.33
2022-12-24T10:01:56.422Z,35.00
2022-12-24T10:04:30.715Z,30.33
2022-12-24T10:07:11.389Z,38.00
2022-12-24T10:10:25.019Z,35.33
2022-12-24T10:14:03.800Z,37.67
2022-12-24T10:17:02.225Z,29.33
2022-12-24T10:20:10.478Z,39.33
2022-12-24T10:23:18.422Z,47.33
2022-12-24T10:26:25.800Z,24.33
2022-12-24T10:29:07.323Z,35.33
2022-12-24T10:32:08.412Z,45.50
2022-12-24T10:35:16.064Z,34.33
2022-12-24T10:37:51.933Z,33.00
2022-12-24T10:40:44.328Z,26.67
2022-12-24T10:43:25.991Z,29.67
2022-12-24T10:46:14.746Z,32.33
2022-12-24T10:48:56.943Z,26.33
2022-12-24T10:51:42.136Z,31.33
2022-12-24T10:54:27.448Z,33.50
2022-12-24T10:57:02.895Z,31.00
2022-12-24T10:59:50.770Z,27.33
2022-12-24T11:02:30.632Z,24.67
2022-12-24T11:05:02.325Z,28.00
2022-12-24T11:07:33.054Z,26.00
2022-12-24T11:10:08.419Z,27.33
2022-12-24T11:13:00.177Z,22.67
2022-12-24T11:15:35.767Z,39.00
2022-12-24T11:18:15.096Z,43.50
2022-12-24T11:20:52.930Z,34.00
2022-12-24T11:23:24.003Z,33.33
2022-12-24T11:25:54.242Z,40.67
2022-12-24T11:28:33.146Z,34.67
2022-12-24T11:31:20.425Z,37.67
2022-12-24T11:33:53.499Z,32.00
2022-12-24T11:36:26.621Z,34.33
2022-12-24T11:38:58.310Z,42.50
2022-12-24T11:41:28.486Z,66.00
2022-12-24T11:44:07.920Z,78.50
2022-12-24T11:46:52.407Z,80.00
2022-12-24T11:49:30.195Z,56.00
2022-12-24T11:52:10.624Z,54.67
2022-12-24T11:55:16.666Z,50.33
2022-12-24T11:58:39.785Z,48.33
2022-12-24T12:01:33.595Z,47.00
2022-12-24T12:04:17.636Z,47.33
2022-12-24T12:06:55.642Z,43.33
2022-12-24T12:09:40.181Z,41.33
2022-12-24T12:12:26.456Z,44.33
2022-12-24T12:15:21.706Z,70.00
2022-12-24T12:18:19.864Z,48.00
2022-12-24T12:21:17.560Z,46.67
2022-12-24T12:24:07.126Z,43.67
2022-12-24T12:26:36.401Z,32.00
2022-12-24T12:29:11.105Z,27.33
2022-12-24T12:31:48.722Z,20.00
2022-12-24T12:34:34.262Z,14.20
2022-12-24T12:37:20.809Z,17.00
2022-12-24T12:39:49.305Z,14.00
2022-12-24T12:42:40.623Z,13.33
2022-12-24T12:45:50.052Z,13.00
2022-12-24T12:49:07.711Z,12.00
2022-12-24T12:52:17.355Z,12.50
2022-12-24T12:55:02.724Z,8.50
2022-12-24T12:57:37.802Z,7.00
2022-12-24T13:00:13.686Z,9.00
2022-12-24T13:02:51.993Z,5.00
2022-12-24T13:05:59.583Z,11.00
2022-12-24T13:09:16.875Z,9.40
2022-12-24T13:12:06.330Z,16.00
2022-12-24T13:15:12.493Z,28.67
2022-12-24T13:17:49.611Z,45.33
2022-12-24T13:20:29.893Z,72.33
2022-12-24T13:23:19.180Z,48.67
2022-12-24T13:25:54.978Z,43.33
2022-12-24T13:28:24.320Z,39.00
2022-12-24T13:31:12.038Z,22.00
2022-12-24T13:33:40.680Z,35.00
2022-12-24T13:36:16.737Z,27.00
2022-12-24T13:38:57.326Z,27.00
2022-12-24T13:41:40.199Z,28.00
2022-12-24T13:44:13.584Z,11.67
2022-12-24T13:47:13.165Z,21.33
2022-12-24T13:49:46.623Z,21.33
2022-12-24T13:52:22.662Z,13.00
2022-12-24T13:54:59.095Z,19.00
2022-12-24T13:57:54.109Z,27.33
2022-12-24T14:00:25.057Z,22.00
2022-12-24T14:03:41.931Z,16.00
2022-12-24T14:06:38.226Z,15.00
2022-12-24T14:09:25.161Z,30.00
2022-12-24T14:11:59.825Z,41.50
2022-12-24T14:14:41.655Z,41.00
2022-12-24T14:17:26.646Z,35.67
2022-12-24T14:20:01.314Z,32.33
2022-12-24T14:22:38.960Z,32.00
2022-12-24T14:25:24.018Z,27.67
2022-12-24T14:28:07.800Z,38.67
2022-12-24T14:30:36.526Z,38.00
2022-12-24T14:33:05.347Z,14.00
2022-12-24T14:35:39.837Z,12.00
2022-12-24T14:38:23.060Z,11.33
2022-12-24T14:41:29.686Z,7.00
2022-12-24T14:44:40.965Z,2.00
2022-12-24T14:47:38.948Z,8.50
2022-12-24T14:50:35.066Z,6.00
2022-12-24T14:53:13.548Z,6.00
2022-12-24T14:55:50.279Z,4.00
2022-12-24T14:58:34.093Z,3.00
2022-12-24T15:01:22.031Z,6.00
2022-12-24T15:04:11.874Z,6.00
2022-12-24T15:06:49.807Z,3.00
2022-12-24T15:09:29.593Z,4.00
2022-12-24T15:12:03.562Z,7.60
2022-12-24T15:14:43.166Z,5.50
2022-12-24T15:17:13.542Z,12.50
2022-12-24T15:19:45.779Z,14.00
2022-12-24T15:22:30.246Z,39.00
2022-12-24T15:24:58.054Z,12.00
2022-12-24T15:27:34.256Z,32.00
2022-12-24T15:30:25.419Z,15.00
2022-12-24T15:32:58.722Z,16.50
2022-12-24T15:35:55.493Z,26.50
2022-12-24T15:38:37.935Z,39.00
2022-12-24T15:41:33.799Z,23.00
2022-12-24T15:44:05.766Z,23.00
2022-12-24T15:46:35.583Z,32.00
2022-12-24T15:49:04.894Z,20.00
2022-12-24T15:51:40.239Z,20.00
2022-12-24T15:54:20.023Z,23.50
2022-12-24T15:56:49.719Z,14.00
2022-12-24T15:59:31.285Z,15.00
2022-12-24T16:02:41.859Z,13.67
2022-12-24T16:05:34.001Z,23.00
2022-12-24T16:08:26.070Z,21.50
2022-12-24T16:11:17.682Z,34.67
2022-12-24T16:13:59.680Z,32.00
2022-12-24T16:17:02.886Z,25.67
2022-12-24T16:19:40.132Z,30.00
2022-12-24T16:22:35.493Z,29.67
2022-12-24T16:25:27.403Z,43.67
2022-12-24T16:27:59.959Z,32.33
2022-12-24T16:30:30.145Z,36.00
2022-12-24T16:32:58.776Z,37.00
2022-12-24T16:35:36.644Z,47.67
2022-12-24T16:38:06.254Z,54.67
2022-12-24T16:40:35.934Z,28.33
2022-12-24T16:43:23.757Z,44.33
2022-12-24T16:45:53.937Z,41.00
2022-12-24T16:48:25.839Z,49.00
2022-12-24T16:50:55.450Z,43.00
2022-12-24T16:53:25.095Z,48.33
2022-12-24T16:55:55.645Z,57.67
2022-12-24T16:58:25.147Z,51.67
2022-12-24T17:00:54.762Z,54.67
2022-12-24T17:03:24.312Z,56.00
2022-12-24T17:05:53.015Z,31.00
2022-12-24T17:08:22.434Z,42.33
2022-12-24T17:10:52.740Z,36.67
2022-12-24T17:13:21.420Z,33.00
2022-12-24T17:15:50.919Z,35.67
2022-12-24T17:18:19.588Z,33.33
2022-12-24T17:21:02.078Z,37.33
2022-12-24T17:23:31.543Z,40.67
2022-12-24T17:26:01.263Z,39.00
2022-12-24T17:28:30.745Z,43.00
2022-12-24T17:30:59.428Z,38.00
2022-12-24T17:33:28.870Z,38.00
2022-12-24T17:35:58.207Z,37.00
2022-12-24T17:38:27.835Z,38.00
2022-12-24T17:41:13.685Z,42.00
2022-12-24T17:43:43.312Z,47.33
2022-12-24T17:46:25.366Z,51.00
2022-12-24T17:48:56.224Z,55.00
2022-12-24T17:51:25.753Z,53.00
2022-12-24T17:53:54.512Z,40.67
2022-12-24T17:56:24.061Z,58.00
2022-12-24T17:58:53.841Z,60.67
2022-12-24T18:01:30.593Z,55.33
2022-12-24T18:04:03.162Z,56.00
2022-12-24T18:06:32.769Z,46.00
2022-12-24T18:09:02.327Z,50.00
2022-12-24T18:11:36.586Z,44.00
2022-12-24T18:14:06.464Z,40.67
2022-12-24T18:16:40.107Z,40.00
2022-12-24T18:19:12.799Z,48.00
2022-12-24T18:21:41.358Z,44.00
2022-12-24T18:24:13.287Z,43.50
2022-12-24T18:26:48.688Z,55.00
2022-12-24T18:29:18.386Z,55.00
2022-12-24T18:31:47.912Z,54.33
2022-12-24T18:34:18.547Z,58.00
2022-12-24T18:36:51.310Z,60.67
2022-12-24T18:39:24.526Z,57.00
2022-12-24T18:41:54.016Z,62.33
2022-12-24T18:44:25.522Z,47.00
2022-12-24T18:46:55.622Z,49.00
2022-12-24T18:49:25.103Z,44.67
2022-12-24T18:51:54.572Z,56.33
2022-12-24T18:54:24.319Z,56.33
2022-12-24T18:56:53.945Z,72.33
2022-12-24T18:59:23.762Z,63.00
2022-12-24T19:01:53.806Z,59.67
2022-12-24T19:04:23.527Z,69.33
2022-12-24T19:06:53.709Z,61.67
2022-12-24T19:09:23.954Z,54.50
2022-12-24T19:11:53.427Z,49.00
2022-12-24T19:14:22.972Z,54.33
2022-12-24T19:16:52.523Z,52.00
2022-12-24T19:19:24.235Z,56.33
2022-12-24T19:21:53.843Z,62.33
2022-12-24T19:24:22.183Z,152.50
2022-12-24T19:26:50.755Z,122.00
2022-12-24T19:29:19.724Z,115.00
2022-12-24T19:31:49.532Z,91.00
2022-12-24T19:34:19.473Z,78.33
2022-12-24T19:36:49.134Z,60.67
2022-12-24T19:39:19.845Z,63.00
2022-12-24T19:41:49.436Z,58.00
2022-12-24T19:44:18.954Z,57.33
2022-12-24T19:46:48.397Z,48.67
2022-12-24T19:49:17.272Z,46.50
2022-12-24T19:51:48.108Z,48.67
2022-12-24T19:54:19.372Z,51.33
2022-12-24T19:56:48.975Z,48.00
2022-12-24T19:59:18.117Z,46.00
2022-12-24T20:01:47.729Z,47.33
2022-12-24T20:04:18.951Z,46.00
2022-12-24T20:06:49.799Z,39.33
2022-12-24T20:09:20.679Z,40.00
2022-12-24T20:11:51.564Z,40.33
2022-12-24T20:14:21.079Z,58.00
2022-12-24T20:16:51.316Z,48.00
2022-12-24T20:19:20.780Z,24.00
2022-12-24T20:21:49.893Z,31.67
2022-12-24T20:24:18.904Z,35.50
2022-12-24T20:26:48.460Z,38.00
2022-12-24T20:29:17.142Z,38.00
2022-12-24T20:31:46.341Z,35.00
2022-12-24T20:34:15.910Z,36.33
2022-12-24T20:36:44.575Z,35.00
2022-12-24T20:39:13.395Z,35.00
2022-12-24T20:41:42.798Z,40.00
2022-12-24T20:44:13.503Z,38.67
2022-12-24T20:46:42.951Z,44.33
2022-12-24T20:49:13.246Z,45.00
2022-12-24T20:51:41.974Z,42.50
2022-12-24T20:54:12.121Z,42.00
2022-12-24T20:56:40.726Z,47.00
2022-12-24T20:59:10.159Z,43.00
2022-12-24T21:01:39.967Z,47.67
2022-12-24T21:04:11.782Z,50.67
2022-12-24T21:06:40.450Z,43.50
2022-12-24T21:09:09.785Z,41.00
2022-12-24T21:11:48.181Z,40.00
2022-12-24T21:14:27.698Z,43.00
2022-12-24T21:16:56.702Z,48.00
2022-12-24T21:19:26.270Z,44.00
2022-12-24T21:21:55.720Z,49.33
2022-12-24T21:24:25.311Z,52.33
2022-12-24T21:26:54.889Z,68.00
2022-12-24T21:29:24.401Z,55.00
2022-12-24T21:31:53.861Z,52.00
2022-12-24T21:34:23.579Z,53.67
2022-12-24T21:36:53.010Z,52.00
2022-12-24T21:39:22.767Z,55.67
2022-12-24T21:41:52.256Z,61.67
2022-12-24T21:44:21.783Z,54.33
2022-12-24T21:46:51.281Z,58.67
2022-12-24T21:49:38.611Z,53.00
2022-12-24T21:52:08.092Z,54.00
2022-12-24T21:54:38.606Z,59.00
2022-12-24T21:57:28.087Z,57.33
2022-12-24T22:00:17.947Z,57.00
2022-12-24T22:02:52.322Z,59.00
2022-12-24T22:05:23.512Z,54.67
2022-12-24T22:08:13.670Z,51.00
2022-12-24T22:11:01.758Z,55.00
2022-12-24T22:13:32.490Z,46.33
2022-12-24T22:16:01.957Z,49.00
2022-12-24T22:18:29.680Z,47.00
2022-12-24T22:21:03.216Z,48.00
2022-12-24T22:23:37.093Z,39.33
2022-12-24T22:26:18.909Z,46.00
2022-12-24T22:28:47.521Z,54.00
2022-12-24T22:31:23.996Z,61.00
2022-12-24T22:33:55.429Z,53.33
2022-12-24T22:36:25.159Z,51.67
2022-12-24T22:38:55.292Z,51.33
2022-12-24T22:41:24.819Z,41.00
2022-12-24T22:43:54.349Z,38.00
2022-12-24T22:46:24.149Z,35.00
2022-12-24T22:48:53.660Z,39.67
2022-12-24T22:51:23.479Z,44.67
2022-12-24T22:53:52.041Z,37.33
2022-12-24T22:56:23.391Z,35.00
2022-12-24T22:58:56.544Z,39.33
2022-12-24T23:01:39.290Z,37.00
2022-12-24T23:04:09.460Z,36.00
2022-12-24T23:06:38.815Z,47.00
2022-12-24T23:09:12.631Z,52.00
2022-12-24T23:11:44.025Z,51.00
2022-12-24T23:14:39.300Z,53.67
2022-12-24T23:17:10.047Z,52.00
2022-12-24T23:19:39.776Z,57.00
2022-12-24T23:22:10.488Z,47.33
2022-12-24T23:24:41.465Z,53.67
2022-12-24T23:27:11.423Z,48.33
2022-12-24T23:29:40.177Z,50.50
2022-12-24T23:32:08.862Z,45.00
2022-12-24T23:34:37.481Z,44.00
2022-12-24T23:37:06.119Z,47.00
2022-12-24T23:39:34.778Z,50.00
2022-12-24T23:42:03.601Z,46.00
2022-12-24T23:44:33.083Z,40.67
2022-12-24T23:47:02.650Z,41.67
2022-12-24T23:49:32.283Z,41.67
2022-12-24T23:51:59.986Z,28.00
2022-12-24T23:54:29.937Z,38.33
2022-12-24T23:56:58.529Z,34.00
2022-12-24T23:59:28.119Z,33.00
